Time;durP1;ratioP1;P1;durP2;ratioP2;P2;SDS_P1;SDS_P2;PMS_P1;PMS_P2;Temp;Humidity;BMP_temperature;BMP_pressure;BME280_temperature;BME280_humidity;BME280_pressure;Samples;Min_cycle;Max_cycle;Signal;HPM_P1;HPM_P2
2023/04/29 00:01:30;;;;;;;5.90;3.65;;;;;;;6.92;60.44;62715.50;5025071;28;20226;-79
2023/04/29 00:03:57;;;;;;;3.25;3.03;;;;;;;6.91;60.56;62708.88;5025682;28;20217;-80
2023/04/29 00:06:25;;;;;;;4.03;3.15;;;;;;;6.88;60.80;62708.31;5033282;28;20225;-80
2023/04/29 00:08:52;;;;;;;4.97;3.65;;;;;;;6.83;61.15;62698.09;5026811;28;20266;-80
2023/04/29 00:11:19;;;;;;;4.40;4.00;;;;;;;6.76;61.35;62695.94;5011619;28;20230;-81
2023/04/29 00:13:46;;;;;;;3.70;3.40;;;;;;;6.72;61.98;62689.28;5021369;28;20223;-80
2023/04/29 00:16:15;;;;;;;4.85;4.25;;;;;;;6.68;62.43;62685.66;5013507;28;20263;-80
2023/04/29 00:18:42;;;;;;;4.55;4.15;;;;;;;6.57;63.52;62674.34;5024533;28;20295;-80
2023/04/29 00:21:09;;;;;;;8.10;4.50;;;;;;;6.50;64.38;62669.66;5021274;28;20250;-80
2023/04/29 00:23:36;;;;;;;7.70;4.97;;;;;;;6.49;64.89;62663.03;5018635;28;20666;-81
2023/04/29 00:26:03;;;;;;;6.07;5.20;;;;;;;6.45;65.37;62661.97;5029445;28;20202;-81
2023/04/29 00:28:30;;;;;;;4.25;3.80;;;;;;;6.35;65.87;62651.63;5030577;28;20230;-82
2023/04/29 00:30:57;;;;;;;7.38;4.45;;;;;;;6.34;66.21;62650.63;5027030;28;20285;-80
2023/04/29 00:33:26;;;;;;;7.97;4.32;;;;;;;6.26;66.63;62644.38;5015480;28;20219;-82
2023/04/29 00:35:53;;;;;;;4.28;3.88;;;;;;;6.25;67.40;62646.38;5023419;28;20195;-80
2023/04/29 00:38:20;;;;;;;3.58;3.28;;;;;;;6.21;67.60;62647.34;5010976;28;20226;-79
2023/04/29 00:40:48;;;;;;;3.30;3.00;;;;;;;6.05;68.43;62625.78;5009300;28;20254;-79
2023/04/29 00:43:15;;;;;;;3.58;2.80;;;;;;;5.93;69.58;62610.38;5013648;28;20233;-80
2023/04/29 00:45:44;;;;;;;3.83;2.50;;;;;;;5.88;69.02;62602.69;5010684;28;20198;-81
2023/04/29 00:48:14;;;;;;;3.95;2.75;;;;;;;5.90;67.86;62607.28;5019655;28;20452;-80
2023/04/29 00:50:42;;;;;;;4.00;3.05;;;;;;;5.93;67.17;62610.88;5012110;28;20223;-79
2023/04/29 00:53:11;;;;;;;3.60;2.83;;;;;;;5.90;67.74;62609.81;5012004;28;20235;-80
2023/04/29 00:55:38;;;;;;;4.28;3.10;;;;;;;5.80;68.14;62599.97;5024551;28;20199;-81
2023/04/29 00:58:06;;;;;;;3.78;2.97;;;;;;;5.82;67.25;62602.59;5031747;28;20203;-80
2023/04/29 01:00:33;;;;;;;3.75;2.83;;;;;;;5.82;67.29;62597.53;5019830;28;20234;-81
2023/04/29 01:03:00;;;;;;;5.78;3.10;;;;;;;5.81;67.27;62596.50;5022509;28;20237;-80
2023/04/29 01:05:27;;;;;;;3.22;2.92;;;;;;;5.68;67.64;62583.09;5033126;28;20194;-80
2023/04/29 01:08:10;;;;;;;3.25;3.00;;;;;;;5.76;68.09;62593.34;5015527;28;20254;-79
2023/04/29 01:10:44;;;;;;;4.18;2.88;;;;;;;5.66;67.87;62583.53;5011372;28;20372;-80
2023/04/29 01:13:18;;;;;;;5.78;2.78;;;;;;;5.70;67.70;62584.63;5022849;28;20385;-79
2023/04/29 01:15:49;;;;;;;2.97;2.78;;;;;;;5.68;68.35;62585.59;5024500;28;20206;-81
2023/04/29 01:18:23;;;;;;;2.53;2.33;;;;;;;5.70;68.47;62587.66;5011727;28;20229;-81
2023/04/29 01:20:51;;;;;;;4.00;2.70;;;;;;;5.65;68.98;62580.00;5010052;28;20227;-83
2023/04/29 01:23:20;;;;;;;3.33;3.03;;;;;;;5.56;68.90;62575.25;5009142;28;20227;-80
2023/04/29 01:25:49;;;;;;;5.30;2.83;;;;;;;5.61;68.29;62577.88;5010805;28;20199;-81
2023/04/29 01:28:29;;;;;;;2.88;2.67;;;;;;;5.64;68.04;62578.97;5012380;28;20261;-81
2023/04/29 01:31:00;;;;;;;4.25;3.55;;;;;;;5.68;68.75;62582.56;5009317;28;20267;-81
2023/04/29 01:33:40;;;;;;;3.88;2.58;;;;;;;5.78;67.42;62595.91;5011573;28;20395;-80
2023/04/29 01:36:22;;;;;;;2.50;2.40;;;;;;;5.69;67.76;62586.63;5027033;28;20202;-81
2023/04/29 01:39:00;;;;;;;2.58;2.38;;;;;;;5.67;68.02;62584.59;5021567;28;20228;-81
2023/04/29 01:41:36;;;;;;;3.67;2.95;;;;;;;5.58;68.11;62577.84;5011512;28;20238;-81
2023/04/29 01:44:08;;;;;;;4.20;2.67;;;;;;;5.76;67.57;62588.78;5028026;28;20195;-84
2023/04/29 01:46:36;;;;;;;3.22;2.60;;;;;;;5.71;67.25;62586.16;5020332;28;20200;-80
2023/04/29 01:49:03;;;;;;;3.78;3.05;;;;;;;5.72;67.67;62589.22;5017588;28;20194;-81
2023/04/29 01:51:30;;;;;;;3.35;3.15;;;;;;;5.75;68.10;62592.81;5014224;28;20207;-81
2023/04/29 01:53:57;;;;;;;4.72;3.55;;;;;;;5.75;68.62;62589.78;5011961;28;20183;-80
2023/04/29 01:56:25;;;;;;;4.13;3.35;;;;;;;5.75;68.62;62594.81;5020903;28;20214;-79
2023/04/29 01:58:53;;;;;;;4.57;4.18;;;;;;;5.70;68.87;62587.16;5016159;28;20505;-82
2023/04/29 02:01:20;;;;;;;5.07;3.90;;;;;;;5.75;69.26;62592.31;5019644;28;20544;-81
2023/04/29 02:03:48;;;;;;;6.75;3.50;;;;;;;5.75;69.76;62589.78;5019668;28;20475;-80
2023/04/29 02:06:15;;;;;;;5.53;2.95;;;;;;;5.75;69.86;62592.81;5021460;28;20191;-81
2023/04/29 02:08:42;;;;;;;4.00;3.17;;;;;;;5.67;70.43;62584.06;5016887;28;20282;-79
2023/04/29 02:11:09;;;;;;;5.05;3.03;;;;;;;5.62;70.61;62576.38;5027955;28;20202;-80
2023/04/29 02:13:36;;;;;;;3.50;3.05;;;;;;;5.58;71.10;62572.25;5028367;28;20218;-81
2023/04/29 02:16:12;;;;;;;4.15;3.85;;;;;;;5.59;71.50;62573.31;4971582;28;1516015;-82
2023/04/29 02:18:40;;;;;;;4.45;4.05;;;;;;;5.52;73.31;62569.13;5012847;28;20231;-81
2023/04/29 02:21:08;;;;;;;6.18;4.93;;;;;;;5.53;74.07;62565.09;5010052;28;20202;-81
2023/04/29 02:23:35;;;;;;;10.57;5.60;;;;;;;5.50;74.97;62556.97;5023278;28;20222;-79
2023/04/29 02:26:04;;;;;;;5.95;4.72;;;;;;;5.47;75.94;62563.97;5013018;28;20203;-80
2023/04/29 02:28:31;;;;;;;5.55;4.43;;;;;;;5.45;76.64;62556.84;5023624;28;20245;-80
2023/04/29 02:30:58;;;;;;;6.88;4.35;;;;;;;5.36;77.45;62552.66;5013253;28;20188;-79
2023/04/29 02:33:27;;;;;;;4.53;4.15;;;;;;;5.36;78.58;62552.13;5028002;28;20219;-80
2023/04/29 02:35:55;;;;;;;5.28;4.78;;;;;;;5.28;79.40;62544.41;5015470;28;20187;-81
2023/04/29 02:38:21;;;;;;;7.90;5.50;;;;;;;5.25;79.75;62543.84;5013364;28;20215;-79
2023/04/29 02:40:49;;;;;;;6.18;5.57;;;;;;;5.21;80.79;62537.19;5012617;28;20199;-81
2023/04/29 02:43:16;;;;;;;6.57;4.82;;;;;;;5.10;81.61;62520.31;5013259;28;20226;-81
2023/04/29 02:45:43;;;;;;;4.20;3.90;;;;;;;5.13;81.21;62523.91;5013095;28;20235;-80
2023/04/29 02:48:10;;;;;;;3.80;3.50;;;;;;;5.00;80.98;62515.06;5024646;28;20266;-80
2023/04/29 02:50:38;;;;;;;6.45;4.20;;;;;;;5.02;80.64;62514.59;5033441;28;20198;-81
2023/04/29 02:53:05;;;;;;;3.35;3.05;;;;;;;4.95;81.19;62512.44;5031159;28;20226;-79
2023/04/29 02:55:33;;;;;;;3.45;3.20;;;;;;;4.85;80.46;62497.59;5019487;28;20233;-80
2023/04/29 02:58:00;;;;;;;5.18;2.83;;;;;;;4.81;79.83;62496.00;5015587;28;20225;-80
2023/04/29 03:00:27;;;;;;;3.65;3.45;;;;;;;4.68;79.19;62485.13;5016549;28;20243;-80
2023/04/29 03:02:54;;;;;;;3.63;2.60;;;;;;;4.79;78.92;62490.91;5015285;28;20243;-81
2023/04/29 03:05:21;;;;;;;2.75;2.55;;;;;;;4.77;79.34;62493.88;5015168;28;20211;-80
2023/04/29 03:07:50;;;;;;;3.47;3.20;;;;;;;4.71;80.43;62481.16;5020424;28;20230;-81
2023/04/29 03:10:18;;;;;;;4.07;3.47;;;;;;;4.71;80.99;62478.66;5031836;28;20209;-80
2023/04/29 03:12:45;;;;;;;5.88;2.67;;;;;;;4.59;82.07;62473.88;5023150;28;20246;-81
2023/04/29 03:15:12;;;;;;;2.75;2.55;;;;;;;4.56;82.15;62467.75;5015059;28;20203;-81
2023/04/29 03:17:40;;;;;;;3.47;2.85;;;;;;;4.54;81.82;62468.72;5014243;28;20254;-80
2023/04/29 03:20:09;;;;;;;3.38;3.08;;;;;;;4.48;82.42;62462.56;5020561;28;20207;-82
2023/04/29 03:22:37;;;;;;;3.33;3.05;;;;;;;4.43;83.12;62457.41;5028024;28;20234;-82
2023/04/29 03:25:06;;;;;;;3.55;3.22;;;;;;;4.42;82.97;62455.84;5021045;28;20210;-80
2023/04/29 03:27:33;;;;;;;3.53;3.33;;;;;;;4.42;82.78;62453.84;5027140;28;20431;-80
2023/04/29 03:30:00;;;;;;;4.00;3.70;;;;;;;4.34;83.24;62440.06;5022995;28;20195;-80
2023/04/29 03:32:27;;;;;;;6.45;3.03;;;;;;;4.42;83.41;62450.81;5016936;28;20219;-80
2023/04/29 03:34:54;;;;;;;3.83;3.50;;;;;;;4.46;83.69;62460.50;5011172;28;20206;-81
2023/04/29 03:37:21;;;;;;;4.57;3.60;;;;;;;4.46;83.79;62457.44;5016128;28;20219;-80
2023/04/29 03:39:49;;;;;;;4.68;3.63;;;;;;;4.54;84.08;62465.69;5011997;28;20246;-81
2023/04/29 03:42:17;;;;;;;3.05;2.92;;;;;;;4.57;83.36;62473.81;5013868;28;20234;-80
2023/04/29 03:44:45;;;;;;;3.92;2.95;;;;;;;4.69;81.79;62481.13;5012490;28;20203;-80
2023/04/29 03:47:13;;;;;;;3.15;3.00;;;;;;;4.79;81.00;62488.91;5024434;28;20218;-79
2023/04/29 03:49:40;;;;;;;3.30;3.08;;;;;;;4.81;80.62;62490.44;5013458;28;20211;-79
2023/04/29 03:52:11;;;;;;;3.63;3.03;;;;;;;4.88;80.75;62502.69;5021280;28;20223;-80
2023/04/29 03:54:39;;;;;;;4.15;3.03;;;;;;;5.02;81.19;62512.56;5015123;28;20207;-79
2023/04/29 03:57:09;;;;;;;3.40;2.92;;;;;;;4.90;82.08;62505.25;5031492;28;20225;-80
2023/04/29 04:00:04;;;;;;;2.95;2.75;;;;;;;5.14;82.45;62529.47;5019768;28;20199;-80
2023/04/29 04:02:31;;;;;;;10.25;3.10;;;;;;;5.12;84.57;62527.41;5015018;28;20235;-79
2023/04/29 04:04:59;;;;;;;4.03;3.63;;;;;;;5.17;86.15;62532.56;5018532;28;20365;-80
2023/04/29 04:07:26;;;;;;;4.80;4.30;;;;;;;5.29;85.55;62544.91;5019661;28;20230;-80
2023/04/29 04:09:53;;;;;;;5.88;5.35;;;;;;;5.44;85.23;62563.41;5028068;28;20199;-81
2023/04/29 04:12:20;;;;;;;6.07;4.60;;;;;;;5.46;85.99;62559.91;5014135;28;20223;-80
2023/04/29 04:14:50;;;;;;;5.50;4.55;;;;;;;5.56;86.75;62565.16;5027379;28;20203;-80
2023/04/29 04:17:18;;;;;;;5.22;4.72;;;;;;;5.78;85.34;62595.41;5014484;28;20227;-79
2023/04/29 04:19:46;;;;;;;7.60;4.45;;;;;;;5.81;85.25;62598.50;5021879;28;20190;-80
2023/04/29 04:22:13;;;;;;;8.63;5.20;;;;;;;5.90;83.61;62600.22;5033660;28;20261;-81
2023/04/29 04:24:40;;;;;;;4.68;4.22;;;;;;;5.65;83.73;62579.47;5021121;28;20202;-79
2023/04/29 04:27:07;;;;;;;5.75;4.22;;;;;;;6.16;82.16;62636.59;5014750;28;20215;-80
2023/04/29 04:29:34;;;;;;;7.18;4.28;;;;;;;6.32;81.92;62653.09;5017947;28;20210;-80
2023/04/29 04:32:02;;;;;;;7.70;5.88;;;;;;;6.24;81.25;62639.78;5023223;28;20219;-80
2023/04/29 04:34:31;;;;;;;9.93;6.53;;;;;;;6.32;80.18;62650.56;5012749;28;20207;-79
2023/04/29 04:36:58;;;;;;;12.27;6.35;;;;;;;6.23;80.99;62643.81;5020906;28;20473;-79
2023/04/29 04:39:26;;;;;;;8.52;5.90;;;;;;;6.43;81.37;62659.91;5019772;28;20227;-79
2023/04/29 04:41:53;;;;;;;11.55;5.97;;;;;;;6.27;82.05;62643.41;5011473;28;20239;-79
2023/04/29 04:44:20;;;;;;;5.95;5.40;;;;;;;6.32;81.21;62650.56;5024069;28;20297;-80
2023/04/29 04:46:47;;;;;;;6.35;5.28;;;;;;;6.45;80.39;62661.97;5022863;28;20207;-80
2023/04/29 04:49:14;;;;;;;7.40;5.90;;;;;;;6.32;83.16;62648.56;5010333;28;20198;-80
2023/04/29 04:51:44;;;;;;;10.77;6.82;;;;;;;6.33;83.29;62657.19;5015059;28;20209;-79
2023/04/29 04:54:12;;;;;;;5.63;5.15;;;;;;;6.17;84.33;62635.09;5016428;28;20276;-78
2023/04/29 04:56:40;;;;;;;7.47;5.57;;;;;;;6.24;82.67;62639.78;5011512;28;20196;-82
2023/04/29 04:59:07;;;;;;;9.98;6.95;;;;;;;6.23;84.99;62638.75;5014747;28;20207;-78
2023/04/29 05:01:34;;;;;;;8.52;7.72;;;;;;;6.10;88.10;62625.34;5020924;28;20272;-79
2023/04/29 05:04:02;;;;;;;14.07;8.27;;;;;;;6.12;89.27;62633.00;5013723;28;20263;-79
2023/04/29 05:06:29;;;;;;;10.73;7.50;;;;;;;6.31;89.74;62647.53;5014317;28;20199;-77
2023/04/29 05:08:58;;;;;;;10.45;7.82;;;;;;;6.47;88.36;62668.56;5019434;28;20190;-80
2023/04/29 05:11:24;;;;;;;11.07;7.75;;;;;;;6.78;89.62;62695.97;5019734;28;20191;-80
2023/04/29 05:13:52;;;;;;;17.65;8.05;;;;;;;6.99;85.12;62719.66;5025316;28;20302;-80
2023/04/29 05:16:19;;;;;;;8.20;6.85;;;;;;;7.19;79.78;62737.25;5017921;28;20215;-79
2023/04/29 05:18:46;;;;;;;10.50;7.78;;;;;;;7.31;78.11;62752.69;5009439;28;20217;-78
2023/04/29 05:21:13;;;;;;;9.80;7.50;;;;;;;7.31;78.12;62755.22;5014576;28;20274;-79
2023/04/29 05:23:40;;;;;;;12.55;7.68;;;;;;;7.51;79.07;62767.72;5015150;28;20231;-80
2023/04/29 05:26:09;;;;;;;9.18;7.28;;;;;;;7.51;79.36;62775.34;5010506;28;20496;-80
2023/04/29 05:28:36;;;;;;;12.88;7.45;;;;;;;7.42;81.30;62758.47;5022667;28;20219;-80
2023/04/29 05:31:03;;;;;;;12.02;7.68;;;;;;;7.78;80.48;62803.72;5018259;28;20261;-79
2023/04/29 05:33:31;;;;;;;7.60;6.82;;;;;;;7.82;77.68;62805.31;5022826;28;20219;-79
2023/04/29 05:36:46;;;;;;;9.18;7.15;;;;;;;7.66;76.49;62788.81;5012722;28;20195;-78
2023/04/29 05:39:22;;;;;;;9.50;7.95;;;;;;;7.64;75.83;62783.69;5020334;28;21040;-80
2023/04/29 05:41:50;;;;;;;8.18;6.68;;;;;;;7.75;75.53;62795.56;5027849;28;20198;-79
2023/04/29 05:44:17;;;;;;;9.20;7.75;;;;;;;7.80;76.29;62798.19;5011554;28;20207;-79
2023/04/29 05:46:45;;;;;;;10.82;8.13;;;;;;;7.75;75.43;62792.50;5010371;28;20267;-79
2023/04/29 05:49:12;;;;;;;12.32;6.82;;;;;;;8.05;74.69;62831.63;5029134;28;20199;-79
2023/04/29 05:51:39;;;;;;;12.27;7.32;;;;;;;8.17;74.44;62841.47;5030568;28;20253;-80
2023/04/29 05:54:07;;;;;;;11.23;7.40;;;;;;;8.26;74.38;62850.28;5013583;28;20203;-80
2023/04/29 05:56:34;;;;;;;7.68;6.07;;;;;;;8.12;73.52;62835.78;5008216;28;20210;-80
2023/04/29 05:59:02;;;;;;;9.98;7.25;;;;;;;8.29;73.41;62855.38;5008392;28;20345;-80
2023/04/29 06:01:32;;;;;;;11.07;6.72;;;;;;;8.16;71.95;62834.84;5024915;28;20279;-78
2023/04/29 06:04:00;;;;;;;7.75;6.20;;;;;;;8.00;72.94;62823.41;5010493;28;20230;-78
2023/04/29 06:06:27;;;;;;;8.82;5.72;;;;;;;7.77;74.37;62799.63;5019644;28;20198;-77
2023/04/29 06:08:54;;;;;;;6.80;5.75;;;;;;;7.86;74.49;62814.00;5010651;28;20227;-79
2023/04/29 06:11:21;;;;;;;10.48;6.47;;;;;;;8.27;73.99;62850.78;5008302;28;20443;-77
2023/04/29 06:13:48;;;;;;;10.63;7.63;;;;;;;8.49;71.74;62876.56;5011230;28;20238;-81
2023/04/29 06:16:17;;;;;;;9.93;5.80;;;;;;;8.36;69.63;62858.06;5009968;28;20211;-80
2023/04/29 06:18:44;;;;;;;11.75;6.97;;;;;;;8.77;69.74;62902.44;5007899;28;20211;-80
2023/04/29 06:21:12;;;;;;;9.05;5.95;;;;;;;9.19;67.76;62945.84;5016815;28;20198;-80
2023/04/29 06:23:39;;;;;;;11.85;5.10;;;;;;;9.60;65.93;62985.69;5023706;28;20299;-78
2023/04/29 06:26:07;;;;;;;8.57;5.95;;;;;;;9.67;64.33;62995.47;5009349;28;20195;-80
2023/04/29 06:28:34;;;;;;;15.35;6.93;;;;;;;9.47;64.68;62972.25;5009642;28;20250;-80
2023/04/29 06:31:02;;;;;;;6.43;5.65;;;;;;;9.35;65.07;62964.94;5009274;28;20255;-79
2023/04/29 06:33:32;;;;;;;7.55;5.90;;;;;;;9.40;65.42;62967.56;5020084;28;20293;-83
2023/04/29 06:36:00;;;;;;;8.15;5.75;;;;;;;9.62;64.33;62987.25;5028937;28;20194;-80
2023/04/29 06:38:27;;;;;;;6.35;5.72;;;;;;;9.83;63.20;63011.50;5030697;28;20226;-80
2023/04/29 06:40:54;;;;;;;8.68;5.47;;;;;;;10.12;62.39;63044.06;5017934;28;20212;-79
2023/04/29 06:43:21;;;;;;;9.10;5.15;;;;;;;10.39;61.35;63072.00;5009122;28;20243;-81
2023/04/29 06:45:48;;;;;;;6.65;4.65;;;;;;;10.63;59.55;63091.75;5012663;28;20222;-82
2023/04/29 06:48:16;;;;;;;9.82;4.90;;;;;;;10.68;59.25;63099.50;5018727;28;20539;-81
2023/04/29 06:50:51;;;;;;;7.13;4.90;;;;;;;10.86;57.08;63117.59;5028960;28;20207;-81
2023/04/29 06:53:18;;;;;;;5.47;4.22;;;;;;;11.11;55.27;63141.44;5025208;28;20252;-81
2023/04/29 06:55:46;;;;;;;8.75;4.90;;;;;;;11.39;53.86;63175.53;5026128;28;20195;-80
2023/04/29 06:58:13;;;;;;;7.57;4.95;;;;;;;11.62;53.30;63196.81;5010361;28;20298;-80
2023/04/29 07:00:41;;;;;;;5.57;4.35;;;;;;;11.66;53.33;63199.94;5022171;28;20203;-79
2023/04/29 07:03:09;;;;;;;5.03;4.45;;;;;;;11.39;52.86;63178.09;5027802;28;20265;-80
2023/04/29 07:05:39;;;;;;;7.93;4.75;;;;;;;11.30;54.70;63160.63;5031495;28;20214;-79
2023/04/29 07:08:09;;;;;;;8.27;5.10;;;;;;;11.22;54.04;63154.88;5026833;28;20383;-79
2023/04/29 07:10:36;;;;;;;5.20;4.80;;;;;;;11.34;54.37;63167.81;5011212;28;20208;-81
2023/04/29 07:13:03;;;;;;;11.45;4.50;;;;;;;11.45;53.71;63179.22;5008839;28;20223;-80
2023/04/29 07:15:34;;;;;;;8.55;5.03;;;;;;;11.37;54.35;63168.38;5010986;28;20203;-80
2023/04/29 07:18:03;;;;;;;7.05;4.65;;;;;;;11.38;56.08;63171.44;5008866;28;20318;-79
2023/04/29 07:20:30;;;;;;;4.72;4.20;;;;;;;11.66;53.81;63197.91;5013874;28;20226;-80
2023/04/29 07:22:58;;;;;;;4.68;4.28;;;;;;;11.77;52.07;63211.34;5013979;28;20243;-79
2023/04/29 07:25:28;;;;;;;4.05;3.72;;;;;;;11.86;52.83;63218.09;5013920;28;20187;-80
2023/04/29 07:27:55;;;;;;;6.45;4.15;;;;;;;11.99;52.04;63239.78;5012032;28;20230;-81
2023/04/29 07:30:23;;;;;;;5.10;4.05;;;;;;;11.70;51.27;63201.53;5011620;28;20203;-80
2023/04/29 07:32:50;;;;;;;6.75;4.75;;;;;;;11.95;51.98;63230.50;5013431;28;20223;-80
2023/04/29 07:35:19;;;;;;;5.07;3.97;;;;;;;12.24;51.28;63257.50;5020878;28;20268;-80
2023/04/29 07:37:47;;;;;;;6.72;4.28;;;;;;;12.54;51.37;63294.22;5032301;28;20246;-80
2023/04/29 07:40:14;;;;;;;5.25;4.72;;;;;;;12.61;51.09;63295.84;5032357;28;20201;-81
2023/04/29 07:42:43;;;;;;;4.80;4.40;;;;;;;12.59;51.30;63296.88;5031413;28;20214;-79
2023/04/29 07:45:12;;;;;;;6.40;5.25;;;;;;;12.52;51.72;63292.16;5022958;28;20524;-81
2023/04/29 07:47:39;;;;;;;7.72;5.28;;;;;;;12.80;50.70;63318.63;5017842;28;20242;-80
2023/04/29 07:50:07;;;;;;;6.03;4.75;;;;;;;13.18;50.70;63357.03;5013248;28;20463;-79
2023/04/29 07:52:34;;;;;;;5.47;4.90;;;;;;;12.96;50.17;63334.19;5015436;28;20202;-78
2023/04/29 07:55:02;;;;;;;9.85;5.47;;;;;;;12.96;49.93;63331.63;5028927;28;20207;-77
2023/04/29 07:57:29;;;;;;;7.13;4.88;;;;;;;12.93;49.90;63331.06;5010903;28;20313;-80
2023/04/29 07:59:58;;;;;;;6.55;5.32;;;;;;;12.92;48.73;63330.03;5012713;28;20226;-78
2023/04/29 08:02:26;;;;;;;6.70;5.32;;;;;;;12.88;49.07;63323.84;5013911;28;20220;-80
2023/04/29 08:04:54;;;;;;;11.75;4.97;;;;;;;13.10;48.58;63351.78;5011230;28;20231;-80
2023/04/29 08:07:21;;;;;;;7.07;4.95;;;;;;;13.25;47.88;63364.28;5014414;28;20220;-78
2023/04/29 08:09:48;;;;;;;12.00;5.00;;;;;;;13.45;47.64;63385.03;5011977;28;20262;-81
2023/04/29 08:12:15;;;;;;;7.22;4.82;;;;;;;13.77;46.61;63420.81;5012465;28;20227;-81
2023/04/29 08:14:43;;;;;;;5.32;4.82;;;;;;;14.19;46.80;63464.41;5012930;28;21158;-80
2023/04/29 08:17:12;;;;;;;6.13;4.30;;;;;;;14.18;46.89;63462.84;5014058;28;20218;-79
2023/04/29 08:19:39;;;;;;;5.28;4.53;;;;;;;13.94;45.00;63433.84;5012579;28;20199;-81
2023/04/29 08:22:10;;;;;;;8.18;5.05;;;;;;;14.36;45.46;63476.94;5015912;28;20235;-81
2023/04/29 08:24:37;;;;;;;6.60;4.85;;;;;;;14.52;44.14;63496.13;5027611;28;20230;-78
2023/04/29 08:27:05;;;;;;;5.07;4.53;;;;;;;14.43;43.18;63486.25;5031425;28;20214;-80
2023/04/29 08:29:33;;;;;;;5.88;4.40;;;;;;;14.50;44.00;63491.50;5034947;28;20186;-81
2023/04/29 08:32:00;;;;;;;8.15;4.55;;;;;;;14.73;43.33;63520.53;5025071;28;20211;-81
2023/04/29 08:34:35;;;;;;;7.72;4.15;;;;;;;14.63;42.65;63509.59;5035232;28;20190;-80
2023/04/29 08:37:02;;;;;;;7.40;4.30;;;;;;;14.17;43.57;63459.75;5035102;28;20221;-79
2023/04/29 08:39:30;;;;;;;7.10;4.30;;;;;;;14.16;44.20;63461.28;5032273;28;20199;-81
2023/04/29 08:41:59;;;;;;;7.50;4.22;;;;;;;14.20;43.32;63457.25;5030516;28;20222;-80
2023/04/29 08:44:26;;;;;;;5.38;4.07;;;;;;;14.55;43.41;63498.72;5032738;28;20547;-79
2023/04/29 08:46:56;;;;;;;4.25;3.95;;;;;;;14.44;42.75;63487.31;5034375;28;20249;-81
2023/04/29 08:49:26;;;;;;;3.58;3.33;;;;;;;14.45;41.25;63485.78;5030839;28;20250;-81
2023/04/29 08:51:55;;;;;;;3.88;3.40;;;;;;;14.74;39.91;63516.41;5015704;28;20219;-82
2023/04/29 08:54:22;;;;;;;3.45;2.72;;;;;;;14.74;39.99;63513.84;5020696;28;20199;-82
2023/04/29 08:56:51;;;;;;;5.68;3.10;;;;;;;14.64;39.61;63510.63;5011361;28;20202;-80
2023/04/29 08:59:20;;;;;;;9.88;7.05;;;;;;;15.22;40.32;63567.81;5016205;28;20199;-81
2023/04/29 09:01:51;;;;;;;4.03;3.67;;;;;;;15.48;39.77;63595.38;5012829;28;20205;-83
2023/04/29 09:04:33;;;;;;;3.10;2.90;;;;;;;15.45;39.26;63597.41;5028774;28;20268;-78
2023/04/29 09:07:04;;;;;;;3.90;3.50;;;;;;;15.69;39.41;63612.06;5015984;28;20420;-80
2023/04/29 09:09:33;;;;;;;4.63;4.20;;;;;;;16.23;40.06;63672.84;5013130;28;20199;-79
2023/04/29 09:12:00;;;;;;;3.72;3.33;;;;;;;16.25;38.58;63674.94;5011335;28;20218;-79
2023/04/29 09:14:33;;;;;;;3.53;2.97;;;;;;;16.23;37.99;63675.41;5014890;28;20201;-81
2023/04/29 09:17:18;;;;;;;3.70;3.03;;;;;;;16.33;36.99;63685.28;5013309;28;20218;-80
2023/04/29 09:19:45;;;;;;;5.40;3.03;;;;;;;16.58;36.11;63703.59;5011445;28;20210;-81
2023/04/29 09:22:15;;;;;;;4.32;3.33;;;;;;;16.68;36.07;63721.72;5010972;28;20223;-79
2023/04/29 09:24:43;;;;;;;4.82;3.28;;;;;;;16.46;36.92;63701.94;5010449;28;20234;-79
2023/04/29 09:27:10;;;;;;;6.07;3.50;;;;;;;16.27;37.41;63679.06;5009793;28;20286;-79
2023/04/29 09:29:39;;;;;;;3.15;2.90;;;;;;;16.18;37.08;63668.16;5013131;28;20202;-79
2023/04/29 09:32:22;;;;;;;6.85;3.80;;;;;;;15.98;38.36;63647.34;5011844;28;20223;-82
2023/04/29 09:34:50;;;;;;;4.03;3.53;;;;;;;15.86;37.42;63632.31;5010111;28;20221;-79
2023/04/29 09:37:27;;;;;;;3.75;3.45;;;;;;;15.96;37.40;63647.84;5014084;28;20233;-81
2023/04/29 09:39:55;;;;;;;4.18;3.47;;;;;;;15.95;38.19;63646.81;5012314;28;20484;-79
2023/04/29 09:42:22;;;;;;;4.15;3.20;;;;;;;16.14;38.03;63666.03;5011083;28;20258;-80
2023/04/29 09:44:50;;;;;;;6.55;3.08;;;;;;;16.42;36.68;63695.19;5012224;28;20222;-79
2023/04/29 09:47:17;;;;;;;3.38;3.13;;;;;;;16.48;35.92;63701.44;5012306;28;20282;-80
2023/04/29 09:49:47;;;;;;;3.60;2.88;;;;;;;16.12;35.88;63661.91;5026076;28;20217;-81
2023/04/29 09:52:19;;;;;;;4.45;3.47;;;;;;;16.34;35.71;63684.28;5028546;28;20210;-78
2023/04/29 09:54:48;;;;;;;3.72;2.70;;;;;;;16.69;34.98;63720.19;5023564;28;20206;-80
2023/04/29 09:57:17;;;;;;;3.17;2.92;;;;;;;17.24;33.92;63777.44;5013262;28;20241;-81
2023/04/29 09:59:45;;;;;;;3.45;3.15;;;;;;;17.60;33.91;63811.84;5014202;28;20194;-84
2023/04/29 10:02:16;;;;;;;4.70;3.42;;;;;;;17.83;32.86;63835.78;5013440;28;20286;-80
2023/04/29 10:04:46;;;;;;;4.40;3.80;;;;;;;18.10;33.28;63869.06;5016922;28;20293;-80
2023/04/29 10:07:15;;;;;;;7.40;4.03;;;;;;;17.95;32.92;63853.97;5018079;28;20439;-80
2023/04/29 10:09:45;;;;;;;6.03;3.60;;;;;;;16.69;34.72;63720.72;5007915;28;20203;-80
2023/04/29 10:12:19;;;;;;;8.73;3.85;;;;;;;17.02;34.45;63754.53;5013646;28;20218;-80
2023/04/29 10:14:51;;;;;;;4.43;4.00;;;;;;;16.99;35.38;63748.84;5021380;28;20210;-80
2023/04/29 10:17:24;;;;;;;5.00;3.88;;;;;;;17.31;34.76;63785.25;5010330;28;20241;-79
2023/04/29 10:19:57;;;;;;;4.65;4.10;;;;;;;16.34;35.82;63686.88;5011697;28;20198;-79
2023/04/29 10:22:33;;;;;;;7.75;4.30;;;;;;;16.32;36.36;63682.22;5029275;28;20226;-81
2023/04/29 10:25:20;;;;;;;7.80;4.60;;;;;;;17.07;35.56;63760.25;5036737;28;20221;-79
2023/04/29 10:28:21;;;;;;;8.80;4.38;;;;;;;17.28;35.04;63781.59;5033452;28;20218;-80
2023/04/29 10:30:55;;;;;;;5.13;4.60;;;;;;;17.44;33.68;63800.84;5025783;28;20217;-81
2023/04/29 10:33:24;;;;;;;5.28;4.78;;;;;;;18.08;32.94;63861.81;5028729;28;20231;-79
2023/04/29 10:35:54;;;;;;;8.35;4.82;;;;;;;18.75;32.03;63933.72;5018648;28;20198;-80
2023/04/29 10:38:30;;;;;;;4.65;4.25;;;;;;;19.11;32.37;63966.06;5017578;28;20231;-80
2023/04/29 10:41:04;;;;;;;4.57;4.07;;;;;;;18.53;32.51;63911.31;5031579;28;20215;-79
2023/04/29 10:43:32;;;;;;;7.03;5.68;;;;;;;17.54;33.70;63808.16;5015426;28;20218;-77
2023/04/29 10:46:21;;;;;;;7.60;5.00;;;;;;;17.23;34.95;63776.91;5014213;28;20199;-78
2023/04/29 10:48:50;;;;;;;8.38;5.65;;;;;;;17.29;34.26;63785.72;5025362;28;20215;-80
2023/04/29 10:51:48;;;;;;;6.85;5.53;;;;;;;16.83;34.53;63742.47;5011842;28;20203;-82
2023/04/29 10:54:24;;;;;;;9.05;5.20;;;;;;;16.26;33.97;63672.88;5014763;28;20221;-77
2023/04/29 10:56:53;;;;;;;7.38;5.20;;;;;;;16.49;35.38;63702.47;5033564;28;20254;-77
2023/04/29 10:59:42;;;;;;;7.18;5.00;;;;;;;16.93;35.26;63745.69;5015406;28;20202;-79
2023/04/29 11:02:14;;;;;;;8.50;4.50;;;;;;;16.94;34.23;63744.16;5017337;28;20483;-80
2023/04/29 11:05:08;;;;;;;7.65;4.32;;;;;;;17.16;33.83;63772.19;5025887;28;20241;-80
2023/04/29 11:07:36;;;;;;;5.38;4.53;;;;;;;17.66;34.09;63823.75;5016938;28;20219;-77
2023/04/29 11:10:04;;;;;;;9.65;4.70;;;;;;;17.22;34.94;63775.34;5024756;28;20259;-78
2023/04/29 11:12:31;;;;;;;6.20;5.60;;;;;;;16.55;35.33;63711.28;5028804;28;20222;-77
2023/04/29 11:15:03;;;;;;;7.78;5.00;;;;;;;16.90;35.19;63745.13;5026133;28;20210;-77
2023/04/29 11:17:36;;;;;;;5.80;4.22;;;;;;;16.99;35.98;63751.94;5029997;28;20229;-79
2023/04/29 11:20:20;;;;;;;3.60;2.97;;;;;;;16.67;34.09;63720.69;5027622;28;20203;-80
2023/04/29 11:22:52;;;;;;;4.07;2.33;;;;;;;16.54;32.03;63702.53;5033824;28;20194;-77
2023/04/29 11:25:20;;;;;;;2.80;2.33;;;;;;;16.62;32.78;63716.00;5026532;28;20233;-80
2023/04/29 11:28:02;;;;;;;9.93;3.28;;;;;;;16.54;34.13;63704.59;5021369;28;20540;-81
2023/04/29 11:30:45;;;;;;;3.88;1.95;;;;;;;16.63;33.11;63722.19;5034348;28;20190;-79
2023/04/29 11:33:28;;;;;;;3.33;3.03;;;;;;;16.60;34.49;63708.78;5031336;28;20218;-80
2023/04/29 11:35:56;;;;;;;3.10;2.88;;;;;;;16.43;33.53;63696.22;5019743;28;20203;-78
2023/04/29 11:38:25;;;;;;;3.83;1.80;;;;;;;16.13;33.68;63662.94;5024603;28;20218;-80
2023/04/29 11:40:53;;;;;;;2.60;1.83;;;;;;;16.47;34.21;63699.88;5025088;28;20198;-79
2023/04/29 11:43:21;;;;;;;2.20;2.10;;;;;;;16.44;34.61;63697.25;5021075;28;20410;-77
2023/04/29 11:45:50;;;;;;;2.05;1.85;;;;;;;15.93;34.59;63647.31;5031177;28;20233;-76
2023/04/29 11:48:21;;;;;;;1.95;1.85;;;;;;;15.75;35.65;63622.94;5023263;28;20261;-78